sensor_id;sensor_type;location;lat;lon;timestamp;temperature;humidity
64858;SHT30;51335;51.148;6.950;2023-11-19T00:00:22;10.41;99.99
64858;SHT30;51335;51.148;6.950;2023-11-19T00:00:53;10.45;99.99
64858;SHT30;51335;51.148;6.950;2023-11-19T00:01:23;10.44;99.99
64858;SHT30;51335;51.148;6.950;2023-11-19T00:01:53;10.42;99.99
64858;SHT30;51335;51.148;6.950;2023-11-19T00:02:23;10.39;99.99
64858;SHT30;51335;51.148;6.950;2023-11-19T00:02:54;10.44;99.99
64858;SHT30;51335;51.148;6.950;2023-11-19T00:03:24;10.44;99.99
64858;SHT30;51335;51.148;6.950;2023-11-19T00:03:54;10.44;99.99
64858;SHT30;51335;51.148;6.950;2023-11-19T00:04:25;10.45;99.99
64858;SHT30;51335;51.148;6.950;2023-11-19T00:04:55;10.44;99.99
64858;SHT30;51335;51.148;6.950;2023-11-19T00:05:25;10.44;99.99
64858;SHT30;51335;51.148;6.950;2023-11-19T00:05:55;10.48;99.99
64858;SHT30;51335;51.148;6.950;2023-11-19T00:06:26;10.50;99.99
64858;SHT30;51335;51.148;6.950;2023-11-19T00:06:56;10.53;99.99
64858;SHT30;51335;51.148;6.950;2023-11-19T00:07:26;10.49;99.99
64858;SHT30;51335;51.148;6.950;2023-11-19T00:07:56;10.49;99.99
64858;SHT30;51335;51.148;6.950;2023-11-19T00:08:27;10.55;99.99
64858;SHT30;51335;51.148;6.950;2023-11-19T00:08:57;10.49;99.99
64858;SHT30;51335;51.148;6.950;2023-11-19T00:09:27;10.55;99.99
64858;SHT30;51335;51.148;6.950;2023-11-19T00:09:57;10.55;99.99
64858;SHT30;51335;51.148;6.950;2023-11-19T00:10:28;10.53;99.99
64858;SHT30;51335;51.148;6.950;2023-11-19T00:10:58;10.53;99.99
64858;SHT30;51335;51.148;6.950;2023-11-19T00:11:28;10.52;99.99
64858;SHT30;51335;51.148;6.950;2023-11-19T00:11:59;10.55;99.99
64858;SHT30;51335;51.148;6.950;2023-11-19T00:12:30;10.55;99.99
64858;SHT30;51335;51.148;6.950;2023-11-19T00:13:00;10.50;99.99
64858;SHT30;51335;51.148;6.950;2023-11-19T00:13:30;10.52;99.99
64858;SHT30;51335;51.148;6.950;2023-11-19T00:14:00;10.52;99.99
64858;SHT30;51335;51.148;6.950;2023-11-19T00:14:31;10.59;99.99
64858;SHT30;51335;51.148;6.950;2023-11-19T00:15:01;10.62;99.99
64858;SHT30;51335;51.148;6.950;2023-11-19T00:15:31;10.62;99.99
64858;SHT30;51335;51.148;6.950;2023-11-19T00:16:02;10.56;99.99
64858;SHT30;51335;51.148;6.950;2023-11-19T00:16:32;10.58;99.99
64858;SHT30;51335;51.148;6.950;2023-11-19T00:17:02;10.58;99.99
64858;SHT30;51335;51.148;6.950;2023-11-19T00:17:33;10.60;99.99
64858;SHT30;51335;51.148;6.950;2023-11-19T00:18:03;10.59;99.99
64858;SHT30;51335;51.148;6.950;2023-11-19T00:18:33;10.60;99.99
64858;SHT30;51335;51.148;6.950;2023-11-19T00:19:03;10.62;99.99
64858;SHT30;51335;51.148;6.950;2023-11-19T00:19:34;10.62;99.99
64858;SHT30;51335;51.148;6.950;2023-11-19T00:20:05;10.66;99.99
64858;SHT30;51335;51.148;6.950;2023-11-19T00:20:36;10.67;99.99
64858;SHT30;51335;51.148;6.950;2023-11-19T00:21:06;10.69;99.99
64858;SHT30;51335;51.148;6.950;2023-11-19T00:21:36;10.70;99.99
64858;SHT30;51335;51.148;6.950;2023-11-19T00:22:06;10.69;99.99
64858;SHT30;51335;51.148;6.950;2023-11-19T00:22:37;10.67;99.99
64858;SHT30;51335;51.148;6.950;2023-11-19T00:23:07;10.63;99.99
64858;SHT30;51335;51.148;6.950;2023-11-19T00:23:37;10.69;99.99
64858;SHT30;51335;51.148;6.950;2023-11-19T00:24:08;10.67;99.99
64858;SHT30;51335;51.148;6.950;2023-11-19T00:24:38;10.66;99.99
64858;SHT30;51335;51.148;6.950;2023-11-19T00:25:09;10.65;99.99
64858;SHT30;51335;51.148;6.950;2023-11-19T00:25:40;10.66;99.99
64858;SHT30;51335;51.148;6.950;2023-11-19T00:26:10;10.67;99.99
64858;SHT30;51335;51.148;6.950;2023-11-19T00:26:40;10.65;99.99
64858;SHT30;51335;51.148;6.950;2023-11-19T00:27:10;10.70;99.99
64858;SHT30;51335;51.148;6.950;2023-11-19T00:27:41;10.66;99.99
64858;SHT30;51335;51.148;6.950;2023-11-19T00:28:11;10.63;99.99
64858;SHT30;51335;51.148;6.950;2023-11-19T00:28:41;10.62;99.99
64858;SHT30;51335;51.148;6.950;2023-11-19T00:29:12;10.59;99.99
64858;SHT30;51335;51.148;6.950;2023-11-19T00:29:42;10.58;99.99
64858;SHT30;51335;51.148;6.950;2023-11-19T00:30:13;10.58;99.99
64858;SHT30;51335;51.148;6.950;2023-11-19T00:30:43;10.52;99.99
64858;SHT30;51335;51.148;6.950;2023-11-19T00:31:13;10.56;99.99
64858;SHT30;51335;51.148;6.950;2023-11-19T00:31:44;10.59;99.99
64858;SHT30;51335;51.148;6.950;2023-11-19T00:32:14;10.60;99.99
64858;SHT30;51335;51.148;6.950;2023-11-19T00:32:44;10.60;99.99
64858;SHT30;51335;51.148;6.950;2023-11-19T00:33:14;10.62;99.99
64858;SHT30;51335;51.148;6.950;2023-11-19T00:33:45;10.63;99.99
64858;SHT30;51335;51.148;6.950;2023-11-19T00:34:15;10.65;99.99
64858;SHT30;51335;51.148;6.950;2023-11-19T00:34:45;10.62;99.99
64858;SHT30;51335;51.148;6.950;2023-11-19T00:35:16;10.60;99.99
64858;SHT30;51335;51.148;6.950;2023-11-19T00:35:46;10.63;99.99
64858;SHT30;51335;51.148;6.950;2023-11-19T00:36:16;10.65;99.99
64858;SHT30;51335;51.148;6.950;2023-11-19T00:36:47;10.63;99.99
64858;SHT30;51335;51.148;6.950;2023-11-19T00:37:17;10.60;99.99
64858;SHT30;51335;51.148;6.950;2023-11-19T00:37:47;10.63;99.99
64858;SHT30;51335;51.148;6.950;2023-11-19T00:38:18;10.63;99.99
64858;SHT30;51335;51.148;6.950;2023-11-19T00:38:48;10.59;99.99
64858;SHT30;51335;51.148;6.950;2023-11-19T00:39:18;10.59;99.99
64858;SHT30;51335;51.148;6.950;2023-11-19T00:39:48;10.58;99.99
64858;SHT30;51335;51.148;6.950;2023-11-19T00:40:19;10.59;99.99
64858;SHT30;51335;51.148;6.950;2023-11-19T00:40:49;10.60;99.99
64858;SHT30;51335;51.148;6.950;2023-11-19T00:41:20;10.60;99.99
64858;SHT30;51335;51.148;6.950;2023-11-19T00:41:50;10.59;99.99
64858;SHT30;51335;51.148;6.950;2023-11-19T00:42:20;10.60;99.99
64858;SHT30;51335;51.148;6.950;2023-11-19T00:42:51;10.58;99.99
64858;SHT30;51335;51.148;6.950;2023-11-19T00:43:21;10.59;99.99
64858;SHT30;51335;51.148;6.950;2023-11-19T00:43:51;10.59;99.99
64858;SHT30;51335;51.148;6.950;2023-11-19T00:44:21;10.59;99.99
64858;SHT30;51335;51.148;6.950;2023-11-19T00:44:52;10.59;99.99
64858;SHT30;51335;51.148;6.950;2023-11-19T00:45:22;10.56;99.99
64858;SHT30;51335;51.148;6.950;2023-11-19T00:45:52;10.56;99.99
64858;SHT30;51335;51.148;6.950;2023-11-19T00:46:23;10.62;99.99
64858;SHT30;51335;51.148;6.950;2023-11-19T00:46:53;10.62;99.99
64858;SHT30;51335;51.148;6.950;2023-11-19T00:47:23;10.63;99.99
64858;SHT30;51335;51.148;6.950;2023-11-19T00:47:53;10.65;99.99
64858;SHT30;51335;51.148;6.950;2023-11-19T00:48:24;10.65;99.99
64858;SHT30;51335;51.148;6.950;2023-11-19T00:48:54;10.62;99.99
64858;SHT30;51335;51.148;6.950;2023-11-19T00:49:24;10.62;99.99
64858;SHT30;51335;51.148;6.950;2023-11-19T00:49:54;10.62;99.99
64858;SHT30;51335;51.148;6.950;2023-11-19T00:50:25;10.65;99.99
64858;SHT30;51335;51.148;6.950;2023-11-19T00:50:55;10.65;99.99
64858;SHT30;51335;51.148;6.950;2023-11-19T00:51:25;10.60;99.99
64858;SHT30;51335;51.148;6.950;2023-11-19T00:51:56;10.60;99.99
64858;SHT30;51335;51.148;6.950;2023-11-19T00:52:26;10.62;99.99
64858;SHT30;51335;51.148;6.950;2023-11-19T00:52:56;10.60;99.99
64858;SHT30;51335;51.148;6.950;2023-11-19T00:53:26;10.60;99.99
64858;SHT30;51335;51.148;6.950;2023-11-19T00:53:58;10.59;99.99
64858;SHT30;51335;51.148;6.950;2023-11-19T00:54:28;10.59;99.99
64858;SHT30;51335;51.148;6.950;2023-11-19T00:54:58;10.59;99.99
64858;SHT30;51335;51.148;6.950;2023-11-19T00:55:29;10.62;99.99
64858;SHT30;51335;51.148;6.950;2023-11-19T00:55:59;10.59;99.99
64858;SHT30;51335;51.148;6.950;2023-11-19T00:56:30;10.58;99.99
64858;SHT30;51335;51.148;6.950;2023-11-19T00:57:00;10.62;99.99
64858;SHT30;51335;51.148;6.950;2023-11-19T00:57:31;10.60;99.99
64858;SHT30;51335;51.148;6.950;2023-11-19T00:58:01;10.63;99.99
64858;SHT30;51335;51.148;6.950;2023-11-19T00:58:31;10.66;99.99
64858;SHT30;51335;51.148;6.950;2023-11-19T00:59:01;10.65;99.99
64858;SHT30;51335;51.148;6.950;2023-11-19T00:59:32;10.65;99.99
64858;SHT30;51335;51.148;6.950;2023-11-19T01:00:02;10.66;99.99
64858;SHT30;51335;51.148;6.950;2023-11-19T01:00:33;10.73;99.99
64858;SHT30;51335;51.148;6.950;2023-11-19T01:01:03;10.73;99.99
64858;SHT30;51335;51.148;6.950;2023-11-19T01:01:33;10.72;99.99
64858;SHT30;51335;51.148;6.950;2023-11-19T01:02:04;10.75;99.99
64858;SHT30;51335;51.148;6.950;2023-11-19T01:02:34;10.76;99.99
64858;SHT30;51335;51.148;6.950;2023-11-19T01:03:04;10.73;99.99
64858;SHT30;51335;51.148;6.950;2023-11-19T01:03:34;10.73;99.99
64858;SHT30;51335;51.148;6.950;2023-11-19T01:04:05;10.75;99.99
64858;SHT30;51335;51.148;6.950;2023-11-19T01:04:36;10.75;99.99
64858;SHT30;51335;51.148;6.950;2023-11-19T01:05:08;10.72;99.99
64858;SHT30;51335;51.148;6.950;2023-11-19T01:05:38;10.75;99.99
64858;SHT30;51335;51.148;6.950;2023-11-19T01:06:08;10.79;99.99
64858;SHT30;51335;51.148;6.950;2023-11-19T01:06:39;10.75;99.99
64858;SHT30;51335;51.148;6.950;2023-11-19T01:07:09;10.76;99.99
64858;SHT30;51335;51.148;6.950;2023-11-19T01:07:39;10.79;99.99
64858;SHT30;51335;51.148;6.950;2023-11-19T01:08:10;10.76;99.99
64858;SHT30;51335;51.148;6.950;2023-11-19T01:08:42;10.76;99.99
64858;SHT30;51335;51.148;6.950;2023-11-19T01:09:12;10.77;99.99
64858;SHT30;51335;51.148;6.950;2023-11-19T01:09:43;10.77;99.99
64858;SHT30;51335;51.148;6.950;2023-11-19T01:10:13;10.77;99.99
64858;SHT30;51335;51.148;6.950;2023-11-19T01:10:43;10.79;99.99
64858;SHT30;51335;51.148;6.950;2023-11-19T01:11:20;10.79;99.99
64858;SHT30;51335;51.148;6.950;2023-11-19T01:11:51;10.79;99.99
64858;SHT30;51335;51.148;6.950;2023-11-19T01:12:21;10.79;99.99
64858;SHT30;51335;51.148;6.950;2023-11-19T01:12:51;10.79;99.99
64858;SHT30;51335;51.148;6.950;2023-11-19T01:13:22;10.81;99.99
64858;SHT30;51335;51.148;6.950;2023-11-19T01:13:52;10.80;99.99
64858;SHT30;51335;51.148;6.950;2023-11-19T01:14:22;10.81;99.99
64858;SHT30;51335;51.148;6.950;2023-11-19T01:14:53;10.80;99.99
64858;SHT30;51335;51.148;6.950;2023-11-19T01:15:23;10.86;99.99
64858;SHT30;51335;51.148;6.950;2023-11-19T01:15:53;10.83;99.99
64858;SHT30;51335;51.148;6.950;2023-11-19T01:16:24;10.86;99.99
64858;SHT30;51335;51.148;6.950;2023-11-19T01:16:56;10.89;99.99
64858;SHT30;51335;51.148;6.950;2023-11-19T01:17:26;10.87;99.99
64858;SHT30;51335;51.148;6.950;2023-11-19T01:17:56;10.92;99.99
64858;SHT30;51335;51.148;6.950;2023-11-19T01:18:27;10.92;99.99
64858;SHT30;51335;51.148;6.950;2023-11-19T01:18:57;10.90;99.99
64858;SHT30;51335;51.148;6.950;2023-11-19T01:19:27;10.93;99.99
64858;SHT30;51335;51.148;6.950;2023-11-19T01:19:57;10.92;99.99
64858;SHT30;51335;51.148;6.950;2023-11-19T01:20:28;10.93;99.99
64858;SHT30;51335;51.148;6.950;2023-11-19T01:20:58;10.96;99.99
64858;SHT30;51335;51.148;6.950;2023-11-19T01:21:28;10.96;99.99
64858;SHT30;51335;51.148;6.950;2023-11-19T01:21:58;10.97;99.99
64858;SHT30;51335;51.148;6.950;2023-11-19T01:22:29;11.03;99.99
64858;SHT30;51335;51.148;6.950;2023-11-19T01:22:59;10.99;99.99
64858;SHT30;51335;51.148;6.950;2023-11-19T01:23:29;11.01;99.99
64858;SHT30;51335;51.148;6.950;2023-11-19T01:23:59;11.00;99.99
64858;SHT30;51335;51.148;6.950;2023-11-19T01:24:30;10.99;99.99
64858;SHT30;51335;51.148;6.950;2023-11-19T01:25:00;10.97;99.99
64858;SHT30;51335;51.148;6.950;2023-11-19T01:25:30;11.00;99.99
64858;SHT30;51335;51.148;6.950;2023-11-19T01:26:00;10.99;99.99
64858;SHT30;51335;51.148;6.950;2023-11-19T01:26:31;10.99;99.99
64858;SHT30;51335;51.148;6.950;2023-11-19T01:27:01;11.03;99.99
64858;SHT30;51335;51.148;6.950;2023-11-19T01:27:31;11.04;99.99
64858;SHT30;51335;51.148;6.950;2023-11-19T01:28:02;11.04;99.99
64858;SHT30;51335;51.148;6.950;2023-11-19T01:28:32;11.06;99.99
64858;SHT30;51335;51.148;6.950;2023-11-19T01:29:02;11.06;99.99
64858;SHT30;51335;51.148;6.950;2023-11-19T01:29:32;11.10;99.99
64858;SHT30;51335;51.148;6.950;2023-11-19T01:30:03;11.11;99.99
64858;SHT30;51335;51.148;6.950;2023-11-19T01:30:33;11.14;99.99
64858;SHT30;51335;51.148;6.950;2023-11-19T01:31:04;11.20;99.99
64858;SHT30;51335;51.148;6.950;2023-11-19T01:31:34;11.17;99.99
64858;SHT30;51335;51.148;6.950;2023-11-19T01:32:04;11.20;99.99
64858;SHT30;51335;51.148;6.950;2023-11-19T01:32:35;11.20;99.99
64858;SHT30;51335;51.148;6.950;2023-11-19T01:33:05;11.23;99.99
64858;SHT30;51335;51.148;6.950;2023-11-19T01:33:36;11.20;99.99
64858;SHT30;51335;51.148;6.950;2023-11-19T01:34:06;11.20;99.99
64858;SHT30;51335;51.148;6.950;2023-11-19T01:34:36;11.23;99.99
64858;SHT30;51335;51.148;6.950;2023-11-19T01:35:07;11.30;99.99
64858;SHT30;51335;51.148;6.950;2023-11-19T01:35:37;11.30;99.99
64858;SHT30;51335;51.148;6.950;2023-11-19T01:36:14;11.30;99.99
64858;SHT30;51335;51.148;6.950;2023-11-19T01:36:46;11.30;99.99
64858;SHT30;51335;51.148;6.950;2023-11-19T01:37:17;11.28;99.99
64858;SHT30;51335;51.148;6.950;2023-11-19T01:37:47;11.31;99.99
64858;SHT30;51335;51.148;6.950;2023-11-19T01:38:17;11.28;99.99
64858;SHT30;51335;51.148;6.950;2023-11-19T01:38:47;11.28;99.99
64858;SHT30;51335;51.148;6.950;2023-11-19T01:39:18;11.31;99.99
64858;SHT30;51335;51.148;6.950;2023-11-19T01:39:48;11.30;99.99
64858;SHT30;51335;51.148;6.950;2023-11-19T01:40:21;11.31;99.99
64858;SHT30;51335;51.148;6.950;2023-11-19T01:40:55;11.35;99.99
64858;SHT30;51335;51.148;6.950;2023-11-19T01:41:26;11.37;99.99
64858;SHT30;51335;51.148;6.950;2023-11-19T01:41:56;11.34;99.99
64858;SHT30;51335;51.148;6.950;2023-11-19T01:42:27;11.35;99.99
64858;SHT30;51335;51.148;6.950;2023-11-19T01:42:57;11.37;99.99
64858;SHT30;51335;51.148;6.950;2023-11-19T01:43:38;11.37;99.99
64858;SHT30;51335;51.148;6.950;2023-11-19T01:44:08;11.34;99.99
64858;SHT30;51335;51.148;6.950;2023-11-19T01:44:38;11.35;99.99
64858;SHT30;51335;51.148;6.950;2023-11-19T01:45:09;11.32;99.99
64858;SHT30;51335;51.148;6.950;2023-11-19T01:45:39;11.37;99.99
64858;SHT30;51335;51.148;6.950;2023-11-19T01:46:09;11.46;99.99
64858;SHT30;51335;51.148;6.950;2023-11-19T01:46:44;11.44;99.99
64858;SHT30;51335;51.148;6.950;2023-11-19T01:47:16;11.45;99.99
64858;SHT30;51335;51.148;6.950;2023-11-19T01:47:46;11.48;99.99
64858;SHT30;51335;51.148;6.950;2023-11-19T01:48:16;11.46;99.99
64858;SHT30;51335;51.148;6.950;2023-11-19T01:48:47;11.48;99.99
64858;SHT30;51335;51.148;6.950;2023-11-19T01:49:17;11.48;99.99
64858;SHT30;51335;51.148;6.950;2023-11-19T01:49:48;11.52;99.99
64858;SHT30;51335;51.148;6.950;2023-11-19T01:50:19;11.50;99.99
64858;SHT30;51335;51.148;6.950;2023-11-19T01:50:50;11.57;99.99
64858;SHT30;51335;51.148;6.950;2023-11-19T01:51:21;11.54;99.99
64858;SHT30;51335;51.148;6.950;2023-11-19T01:51:52;11.55;99.99
64858;SHT30;51335;51.148;6.950;2023-11-19T01:52:23;11.58;99.99
64858;SHT30;51335;51.148;6.950;2023-11-19T01:52:54;11.59;99.99
64858;SHT30;51335;51.148;6.950;2023-11-19T01:53:25;11.62;99.99
64858;SHT30;51335;51.148;6.950;2023-11-19T01:53:56;11.64;99.99
64858;SHT30;51335;51.148;6.950;2023-11-19T01:54:27;11.69;99.99
64858;SHT30;51335;51.148;6.950;2023-11-19T01:54:58;11.75;99.99
64858;SHT30;51335;51.148;6.950;2023-11-19T01:55:28;11.78;99.99
64858;SHT30;51335;51.148;6.950;2023-11-19T01:55:59;11.79;99.99
64858;SHT30;51335;51.148;6.950;2023-11-19T01:56:30;11.82;99.99
64858;SHT30;51335;51.148;6.950;2023-11-19T01:57:01;11.82;99.99
64858;SHT30;51335;51.148;6.950;2023-11-19T01:57:32;11.83;99.99
64858;SHT30;51335;51.148;6.950;2023-11-19T01:58:02;11.81;99.99
64858;SHT30;51335;51.148;6.950;2023-11-19T01:58:32;11.83;99.99
64858;SHT30;51335;51.148;6.950;2023-11-19T01:59:03;11.82;99.99
64858;SHT30;51335;51.148;6.950;2023-11-19T01:59:34;11.82;99.99
64858;SHT30;51335;51.148;6.950;2023-11-19T02:00:05;11.86;99.99
64858;SHT30;51335;51.148;6.950;2023-11-19T02:00:36;11.87;99.99
64858;SHT30;51335;51.148;6.950;2023-11-19T02:01:06;11.89;99.99
64858;SHT30;51335;51.148;6.950;2023-11-19T02:01:37;11.90;99.99
64858;SHT30;51335;51.148;6.950;2023-11-19T02:02:07;11.96;99.99
64858;SHT30;51335;51.148;6.950;2023-11-19T02:02:38;11.99;99.99
64858;SHT30;51335;51.148;6.950;2023-11-19T02:03:09;12.00;99.99
64858;SHT30;51335;51.148;6.950;2023-11-19T02:03:39;12.04;99.99
64858;SHT30;51335;51.148;6.950;2023-11-19T02:04:11;12.06;99.99
64858;SHT30;51335;51.148;6.950;2023-11-19T02:04:41;12.04;99.99
64858;SHT30;51335;51.148;6.950;2023-11-19T02:05:12;12.06;99.99
64858;SHT30;51335;51.148;6.950;2023-11-19T02:05:43;12.04;99.99
64858;SHT30;51335;51.148;6.950;2023-11-19T02:06:13;12.06;99.99
64858;SHT30;51335;51.148;6.950;2023-11-19T02:06:45;12.09;99.99
64858;SHT30;51335;51.148;6.950;2023-11-19T02:07:15;12.10;99.99
64858;SHT30;51335;51.148;6.950;2023-11-19T02:07:46;12.12;99.99
64858;SHT30;51335;51.148;6.950;2023-11-19T02:08:16;12.14;99.99
64858;SHT30;51335;51.148;6.950;2023-11-19T02:08:46;12.20;99.99
64858;SHT30;51335;51.148;6.950;2023-11-19T02:09:17;12.24;99.99
64858;SHT30;51335;51.148;6.950;2023-11-19T02:09:47;12.23;99.99
64858;SHT30;51335;51.148;6.950;2023-11-19T02:10:17;12.20;99.99
64858;SHT30;51335;51.148;6.950;2023-11-19T02:10:47;12.26;99.99
64858;SHT30;51335;51.148;6.950;2023-11-19T02:11:18;12.26;99.99
64858;SHT30;51335;51.148;6.950;2023-11-19T02:11:48;12.26;99.99
64858;SHT30;51335;51.148;6.950;2023-11-19T02:12:18;12.23;99.99
64858;SHT30;51335;51.148;6.950;2023-11-19T02:12:49;12.22;99.99
64858;SHT30;51335;51.148;6.950;2023-11-19T02:13:19;12.22;99.99
64858;SHT30;51335;51.148;6.950;2023-11-19T02:13:49;12.23;99.99
64858;SHT30;51335;51.148;6.950;2023-11-19T02:14:24;12.20;99.99
64858;SHT30;51335;51.148;6.950;2023-11-19T02:14:55;12.22;99.99
64858;SHT30;51335;51.148;6.950;2023-11-19T02:15:25;12.22;99.99
64858;SHT30;51335;51.148;6.950;2023-11-19T02:15:55;12.24;99.99
64858;SHT30;51335;51.148;6.950;2023-11-19T02:16:26;12.27;99.99
64858;SHT30;51335;51.148;6.950;2023-11-19T02:16:56;12.27;99.99
64858;SHT30;51335;51.148;6.950;2023-11-19T02:17:27;12.29;99.99
64858;SHT30;51335;51.148;6.950;2023-11-19T02:18:20;12.26;99.99
64858;SHT30;51335;51.148;6.950;2023-11-19T02:18:51;12.29;99.99
64858;SHT30;51335;51.148;6.950;2023-11-19T02:19:21;12.31;99.99
64858;SHT30;51335;51.148;6.950;2023-11-19T02:19:51;12.33;99.99
64858;SHT30;51335;51.148;6.950;2023-11-19T02:20:22;12.34;99.99
64858;SHT30;51335;51.148;6.950;2023-11-19T02:20:52;12.30;99.99
64858;SHT30;51335;51.148;6.950;2023-11-19T02:21:22;12.33;99.99
64858;SHT30;51335;51.148;6.950;2023-11-19T02:21:52;12.34;99.99
64858;SHT30;51335;51.148;6.950;2023-11-19T02:22:23;12.34;99.99
64858;SHT30;51335;51.148;6.950;2023-11-19T02:22:53;12.34;99.99
64858;SHT30;51335;51.148;6.950;2023-11-19T02:23:25;12.31;99.99
64858;SHT30;51335;51.148;6.950;2023-11-19T02:23:56;12.33;99.99
64858;SHT30;51335;51.148;6.950;2023-11-19T02:24:28;12.34;99.99
64858;SHT30;51335;51.148;6.950;2023-11-19T02:25:04;12.37;99.99
64858;SHT30;51335;51.148;6.950;2023-11-19T02:25:36;12.37;99.99
64858;SHT30;51335;51.148;6.950;2023-11-19T02:26:30;12.34;99.99
64858;SHT30;51335;51.148;6.950;2023-11-19T02:27:11;12.36;99.99
64858;SHT30;51335;51.148;6.950;2023-11-19T02:28:24;12.36;99.99
64858;SHT30;51335;51.148;6.950;2023-11-19T02:28:55;12.37;99.99
64858;SHT30;51335;51.148;6.950;2023-11-19T02:29:25;12.36;99.99
64858;SHT30;51335;51.148;6.950;2023-11-19T02:29:55;12.40;99.99
64858;SHT30;51335;51.148;6.950;2023-11-19T02:30:26;12.41;99.99
64858;SHT30;51335;51.148;6.950;2023-11-19T02:30:56;12.44;99.99
64858;SHT30;51335;51.148;6.950;2023-11-19T02:31:26;12.44;99.99
64858;SHT30;51335;51.148;6.950;2023-11-19T02:31:57;12.42;99.99
64858;SHT30;51335;51.148;6.950;2023-11-19T02:32:27;12.42;99.99
64858;SHT30;51335;51.148;6.950;2023-11-19T02:32:59;12.44;99.99
64858;SHT30;51335;51.148;6.950;2023-11-19T02:33:29;12.45;99.99
64858;SHT30;51335;51.148;6.950;2023-11-19T02:33:59;12.47;99.99
64858;SHT30;51335;51.148;6.950;2023-11-19T02:34:30;12.48;99.99
64858;SHT30;51335;51.148;6.950;2023-11-19T02:35:00;12.44;99.99
64858;SHT30;51335;51.148;6.950;2023-11-19T02:35:31;12.42;99.99
64858;SHT30;51335;51.148;6.950;2023-11-19T02:36:03;12.44;99.99
64858;SHT30;51335;51.148;6.950;2023-11-19T02:36:33;12.50;99.99
64858;SHT30;51335;51.148;6.950;2023-11-19T02:37:04;12.51;99.99
64858;SHT30;51335;51.148;6.950;2023-11-19T02:37:34;12.50;99.99
64858;SHT30;51335;51.148;6.950;2023-11-19T02:38:05;12.54;99.99
64858;SHT30;51335;51.148;6.950;2023-11-19T02:38:35;12.50;99.99
64858;SHT30;51335;51.148;6.950;2023-11-19T02:39:05;12.48;99.99
64858;SHT30;51335;51.148;6.950;2023-11-19T02:39:36;12.45;99.99
64858;SHT30;51335;51.148;6.950;2023-11-19T02:40:06;12.48;99.99
64858;SHT30;51335;51.148;6.950;2023-11-19T02:40:37;12.50;99.99
64858;SHT30;51335;51.148;6.950;2023-11-19T02:41:07;12.48;99.99
64858;SHT30;51335;51.148;6.950;2023-11-19T02:41:37;12.50;99.99
64858;SHT30;51335;51.148;6.950;2023-11-19T02:42:08;12.51;99.99
64858;SHT30;51335;51.148;6.950;2023-11-19T02:42:38;12.52;99.99
64858;SHT30;51335;51.148;6.950;2023-11-19T02:43:08;12.51;99.99
64858;SHT30;51335;51.148;6.950;2023-11-19T02:43:38;12.52;99.99
64858;SHT30;51335;51.148;6.950;2023-11-19T02:44:09;12.52;99.99
64858;SHT30;51335;51.148;6.950;2023-11-19T02:44:39;12.51;99.99
64858;SHT30;51335;51.148;6.950;2023-11-19T02:45:09;12.52;99.99
64858;SHT30;51335;51.148;6.950;2023-11-19T02:45:40;12.51;99.99
64858;SHT30;51335;51.148;6.950;2023-11-19T02:46:10;12.48;99.99
64858;SHT30;51335;51.148;6.950;2023-11-19T02:46:40;12.50;99.99
64858;SHT30;51335;51.148;6.950;2023-11-19T02:47:11;12.51;99.99
64858;SHT30;51335;51.148;6.950;2023-11-19T02:47:41;12.52;99.99
64858;SHT30;51335;51.148;6.950;2023-11-19T02:48:12;12.51;99.99
64858;SHT30;51335;51.148;6.950;2023-11-19T02:48:42;12.50;99.99
64858;SHT30;51335;51.148;6.950;2023-11-19T02:49:12;12.51;99.99
64858;SHT30;51335;51.148;6.950;2023-11-19T02:49:43;12.54;99.99
64858;SHT30;51335;51.148;6.950;2023-11-19T02:50:13;12.51;99.99
64858;SHT30;51335;51.148;6.950;2023-11-19T02:50:43;12.50;99.99
64858;SHT30;51335;51.148;6.950;2023-11-19T02:51:14;12.50;99.99
64858;SHT30;51335;51.148;6.950;2023-11-19T02:51:44;12.48;99.99
64858;SHT30;51335;51.148;6.950;2023-11-19T02:52:14;12.47;99.99
64858;SHT30;51335;51.148;6.950;2023-11-19T02:52:45;12.47;99.99
64858;SHT30;51335;51.148;6.950;2023-11-19T02:53:15;12.44;99.99
64858;SHT30;51335;51.148;6.950;2023-11-19T02:53:45;12.42;99.99
64858;SHT30;51335;51.148;6.950;2023-11-19T02:54:15;12.42;99.99
64858;SHT30;51335;51.148;6.950;2023-11-19T02:54:46;12.47;99.99
64858;SHT30;51335;51.148;6.950;2023-11-19T02:55:16;12.47;99.99
64858;SHT30;51335;51.148;6.950;2023-11-19T02:55:46;12.47;99.99
64858;SHT30;51335;51.148;6.950;2023-11-19T02:56:16;12.48;99.99
64858;SHT30;51335;51.148;6.950;2023-11-19T02:56:47;12.45;99.99
64858;SHT30;51335;51.148;6.950;2023-11-19T02:57:17;12.45;99.99
64858;SHT30;51335;51.148;6.950;2023-11-19T02:57:47;12.44;99.99
64858;SHT30;51335;51.148;6.950;2023-11-19T02:58:18;12.52;99.99
64858;SHT30;51335;51.148;6.950;2023-11-19T02:58:48;12.55;99.99
64858;SHT30;51335;51.148;6.950;2023-11-19T02:59:18;12.50;99.99
64858;SHT30;51335;51.148;6.950;2023-11-19T02:59:48;12.54;99.99
64858;SHT30;51335;51.148;6.950;2023-11-19T03:00:20;12.55;99.99
64858;SHT30;51335;51.148;6.950;2023-11-19T03:00:51;12.57;99.99
64858;SHT30;51335;51.148;6.950;2023-11-19T03:01:22;12.61;99.99
64858;SHT30;51335;51.148;6.950;2023-11-19T03:01:53;12.58;99.99
64858;SHT30;51335;51.148;6.950;2023-11-19T03:02:23;12.61;99.99
64858;SHT30;51335;51.148;6.950;2023-11-19T03:02:54;12.61;99.99
64858;SHT30;51335;51.148;6.950;2023-11-19T03:03:25;12.67;99.99
64858;SHT30;51335;51.148;6.950;2023-11-19T03:03:57;12.64;99.99
64858;SHT30;51335;51.148;6.950;2023-11-19T03:04:27;12.62;99.99
64858;SHT30;51335;51.148;6.950;2023-11-19T03:04:57;12.60;99.99
64858;SHT30;51335;51.148;6.950;2023-11-19T03:05:28;12.61;99.99
64858;SHT30;51335;51.148;6.950;2023-11-19T03:05:58;12.60;99.99
64858;SHT30;51335;51.148;6.950;2023-11-19T03:06:28;12.57;99.99
64858;SHT30;51335;51.148;6.950;2023-11-19T03:06:58;12.60;99.99
64858;SHT30;51335;51.148;6.950;2023-11-19T03:07:29;12.57;99.99
64858;SHT30;51335;51.148;6.950;2023-11-19T03:07:59;12.54;99.99
64858;SHT30;51335;51.148;6.950;2023-11-19T03:08:29;12.52;99.99
64858;SHT30;51335;51.148;6.950;2023-11-19T03:08:59;12.55;99.99
64858;SHT30;51335;51.148;6.950;2023-11-19T03:09:30;12.57;99.99
64858;SHT30;51335;51.148;6.950;2023-11-19T03:10:00;12.52;99.99
64858;SHT30;51335;51.148;6.950;2023-11-19T03:10:30;12.54;99.99
64858;SHT30;51335;51.148;6.950;2023-11-19T03:11:01;12.54;99.99
64858;SHT30;51335;51.148;6.950;2023-11-19T03:11:31;12.55;99.99
64858;SHT30;51335;51.148;6.950;2023-11-19T03:12:01;12.58;99.99
64858;SHT30;51335;51.148;6.950;2023-11-19T03:12:32;12.61;99.99
64858;SHT30;51335;51.148;6.950;2023-11-19T03:13:02;12.62;99.99
64858;SHT30;51335;51.148;6.950;2023-11-19T03:13:32;12.61;99.99
64858;SHT30;51335;51.148;6.950;2023-11-19T03:14:02;12.62;99.99
64858;SHT30;51335;51.148;6.950;2023-11-19T03:14:33;12.62;99.99